createdAt,value
2022-12-15T00:00:31.266Z,36.20
2022-12-15T00:04:31.790Z,32.20
2022-12-15T00:08:32.168Z,34.97
2022-12-15T00:12:32.581Z,36.45
2022-12-15T00:16:33.137Z,34.17
2022-12-15T00:20:33.883Z,37.38
2022-12-15T00:24:34.471Z,30.45
2022-12-15T00:28:34.921Z,32.92
2022-12-15T00:32:35.343Z,33.08
2022-12-15T00:36:35.900Z,27.73
2022-12-15T00:40:17.836Z,37.20
2022-12-15T00:43:59.554Z,29.02
2022-12-15T00:47:41.447Z,31.85
2022-12-15T00:51:42.176Z,38.78
2022-12-15T00:55:42.406Z,37.30
2022-12-15T00:59:42.685Z,31.08
2022-12-15T01:03:43.976Z,28.00
2022-12-15T01:07:44.787Z,35.42
2022-12-15T01:11:50.320Z,33.85
2022-12-15T01:15:50.978Z,34.80
2022-12-15T01:19:51.744Z,36.50
2022-12-15T01:23:34.634Z,33.50
2022-12-15T01:27:16.642Z,39.45
2022-12-15T01:30:58.667Z,35.90
2022-12-15T01:34:40.557Z,36.47
2022-12-15T01:38:22.319Z,33.85
2022-12-15T01:42:04.107Z,32.13
2022-12-15T01:46:04.416Z,33.88
2022-12-15T01:49:47.679Z,31.80
2022-12-15T01:53:35.527Z,30.58
2022-12-15T01:57:29.625Z,30.88
2022-12-15T02:01:11.801Z,26.30
2022-12-15T02:04:58.732Z,27.65
2022-12-15T02:08:42.398Z,30.55
2022-12-15T02:12:45.669Z,29.27
2022-12-15T02:16:52.794Z,25.40
2022-12-15T02:20:56.464Z,28.33
2022-12-15T02:24:38.185Z,28.10
2022-12-15T02:28:42.836Z,31.75
2022-12-15T02:32:50.282Z,27.52
2022-12-15T02:37:05.994Z,24.42
2022-12-15T02:40:47.694Z,25.08
2022-12-15T02:44:37.044Z,28.77
2022-12-15T02:48:43.029Z,24.80
2022-12-15T02:52:50.259Z,27.15
2022-12-15T03:00:30.830Z,24.00
2022-12-15T03:04:13.414Z,27.77
2022-12-15T03:07:55.205Z,26.25
2022-12-15T03:11:37.494Z,24.10
2022-12-15T03:15:19.674Z,20.77
2022-12-15T03:19:01.443Z,23.88
2022-12-15T03:22:43.193Z,25.25
2022-12-15T03:26:24.913Z,20.00
2022-12-15T03:30:07.421Z,29.50
2022-12-15T03:33:49.167Z,21.95
2022-12-15T03:37:30.951Z,25.58
2022-12-15T03:41:12.653Z,27.95
2022-12-15T03:44:54.350Z,24.85
2022-12-15T03:48:36.278Z,22.50
2022-12-15T03:52:17.998Z,23.25
2022-12-15T03:55:59.706Z,24.50
2022-12-15T03:59:41.475Z,28.98
2022-12-15T04:03:23.319Z,28.77
2022-12-15T04:07:05.125Z,28.10
2022-12-15T04:10:46.850Z,26.63
2022-12-15T04:14:28.941Z,28.92
2022-12-15T04:18:10.895Z,25.90
2022-12-15T04:21:52.610Z,24.30
2022-12-15T04:25:53.285Z,30.13
2022-12-15T04:29:53.806Z,25.95
2022-12-15T04:33:56.086Z,22.77
2022-12-15T04:37:56.505Z,33.38
2022-12-15T04:41:56.987Z,25.52
2022-12-15T04:45:57.515Z,28.88
2022-12-15T04:49:57.780Z,28.55
2022-12-15T04:53:58.105Z,25.05
2022-12-15T04:57:58.508Z,24.08
2022-12-15T05:01:59.081Z,31.25
2022-12-15T05:05:59.375Z,26.30
2022-12-15T05:10:03.209Z,23.05
2022-12-15T05:14:03.773Z,23.27
2022-12-15T05:18:04.246Z,28.45
2022-12-15T05:22:04.822Z,21.38
2022-12-15T05:26:05.290Z,27.45
2022-12-15T05:30:05.573Z,27.88
2022-12-15T05:33:47.314Z,25.15
2022-12-15T05:37:29.038Z,30.90
2022-12-15T05:41:10.744Z,22.65
2022-12-15T05:44:52.457Z,25.40
2022-12-15T05:48:34.197Z,23.98
2022-12-15T05:52:15.927Z,18.52
2022-12-15T05:56:05.568Z,22.35
2022-12-15T05:59:47.304Z,24.67
2022-12-15T06:03:29.287Z,23.67
2022-12-15T06:07:11.210Z,24.90
2022-12-15T06:10:54.565Z,24.65
2022-12-15T06:14:36.355Z,20.70
2022-12-15T06:18:18.085Z,22.02
2022-12-15T06:21:59.796Z,18.35
2022-12-15T06:25:41.504Z,24.52
2022-12-15T06:29:23.443Z,21.58
2022-12-15T06:33:05.205Z,29.02
2022-12-15T06:36:47.331Z,23.52
2022-12-15T06:40:31.041Z,27.30
2022-12-15T06:48:01.455Z,19.50
2022-12-15T06:51:44.972Z,21.70
2022-12-15T06:55:26.821Z,23.02
2022-12-15T06:59:10.525Z,25.63
2022-12-15T07:02:52.351Z,22.10
2022-12-15T07:06:36.950Z,24.58
2022-12-15T07:10:18.818Z,26.20
2022-12-15T07:14:00.659Z,25.20
2022-12-15T07:17:42.432Z,21.90
2022-12-15T07:21:24.381Z,22.85
2022-12-15T07:25:07.128Z,15.65
2022-12-15T07:28:48.894Z,17.23
2022-12-15T07:32:31.219Z,21.40
2022-12-15T07:36:13.196Z,18.83
2022-12-15T07:39:54.954Z,21.02
2022-12-15T07:43:38.451Z,20.08
2022-12-15T07:47:20.510Z,23.73
2022-12-15T07:51:11.116Z,19.67
2022-12-15T07:54:57.444Z,30.17
2022-12-15T07:58:39.201Z,25.73
2022-12-15T08:02:21.402Z,28.10
2022-12-15T08:06:14.275Z,24.35
2022-12-15T08:09:56.052Z,21.92
2022-12-15T08:17:41.279Z,22.83
2022-12-15T08:21:23.311Z,27.45
2022-12-15T08:25:05.421Z,24.67
2022-12-15T08:28:47.219Z,28.45
2022-12-15T08:32:29.011Z,30.70
2022-12-15T08:36:13.171Z,32.83
2022-12-15T08:39:54.929Z,30.63
2022-12-15T08:43:42.511Z,38.67
2022-12-15T08:47:27.500Z,24.23
2022-12-15T08:51:09.817Z,27.17
2022-12-15T08:54:51.637Z,20.27
2022-12-15T08:58:33.897Z,29.60
2022-12-15T09:02:15.764Z,22.63
2022-12-15T09:06:05.172Z,24.13
2022-12-15T09:09:46.988Z,30.20
2022-12-15T09:13:29.297Z,26.23
2022-12-15T09:17:11.513Z,30.27
2022-12-15T09:20:56.316Z,31.85
2022-12-15T09:24:38.049Z,24.10
2022-12-15T09:28:19.749Z,28.98
2022-12-15T09:32:01.663Z,30.85
2022-12-15T09:35:50.862Z,23.42
2022-12-15T09:39:32.585Z,28.08
2022-12-15T09:43:34.468Z,28.25
2022-12-15T09:47:32.127Z,24.58
2022-12-15T09:51:17.997Z,27.00
2022-12-15T09:55:01.755Z,23.08
2022-12-15T09:58:46.679Z,25.05
2022-12-15T10:02:47.359Z,30.42
2022-12-15T10:06:38.117Z,28.55
2022-12-15T10:10:33.026Z,27.15
2022-12-15T10:14:29.002Z,26.98
2022-12-15T10:18:23.353Z,31.15
2022-12-15T10:22:05.436Z,28.85
2022-12-15T10:25:59.610Z,27.90
2022-12-15T10:29:45.943Z,27.92
2022-12-15T10:33:36.591Z,25.30
2022-12-15T10:37:20.689Z,29.23
2022-12-15T10:41:08.448Z,26.65
2022-12-15T10:44:54.042Z,26.13
2022-12-15T10:48:37.451Z,23.05
2022-12-15T10:52:37.878Z,21.05
2022-12-15T10:56:33.261Z,23.17
2022-12-15T11:00:15.701Z,25.95
2022-12-15T11:03:58.105Z,22.83
2022-12-15T11:08:14.053Z,20.88
2022-12-15T11:12:14.615Z,22.85
2022-12-15T11:15:56.591Z,19.10
2022-12-15T11:19:55.112Z,22.80
2022-12-15T11:24:02.712Z,18.05
2022-12-15T11:27:46.411Z,16.70
2022-12-15T11:31:38.523Z,17.48
2022-12-15T11:35:27.425Z,18.23
2022-12-15T11:39:18.190Z,19.98
2022-12-15T11:43:05.739Z,16.42
2022-12-15T11:54:38.890Z,14.18
2022-12-15T11:58:40.885Z,16.70
2022-12-15T12:02:57.173Z,14.63
2022-12-15T12:06:57.447Z,15.83
2022-12-15T12:11:03.388Z,16.58
2022-12-15T12:14:51.371Z,13.43
2022-12-15T12:18:39.404Z,12.18
2022-12-15T12:22:39.677Z,13.65
2022-12-15T12:27:07.815Z,10.40
2022-12-15T12:30:50.656Z,13.45
2022-12-15T12:34:52.910Z,15.02
2022-12-15T12:38:56.709Z,12.10
2022-12-15T12:42:45.270Z,18.13
2022-12-15T12:46:43.967Z,11.75
2022-12-15T12:50:30.226Z,17.75
2022-12-15T12:54:36.729Z,17.80
2022-12-15T12:58:45.489Z,13.38
2022-12-15T13:02:37.996Z,19.50
2022-12-15T13:06:36.225Z,15.18
2022-12-15T13:10:20.891Z,19.27
2022-12-15T13:14:09.201Z,14.77
2022-12-15T13:18:00.539Z,20.63
2022-12-15T13:21:42.385Z,15.77
2022-12-15T13:25:35.787Z,16.92
2022-12-15T13:29:21.912Z,15.50
2022-12-15T13:33:18.777Z,16.85
2022-12-15T13:37:01.334Z,15.85
2022-12-15T13:40:56.203Z,17.75
2022-12-15T13:44:41.730Z,16.48
2022-12-15T13:48:31.761Z,15.55
2022-12-15T13:53:08.139Z,17.02
2022-12-15T13:56:43.420Z,17.45
2022-12-15T14:00:25.272Z,13.27
2022-12-15T14:04:15.454Z,16.45
2022-12-15T14:08:00.439Z,17.25
2022-12-15T14:11:53.180Z,18.17
2022-12-15T14:15:40.269Z,13.05
2022-12-15T14:19:22.572Z,13.45
2022-12-15T14:23:19.338Z,13.30
2022-12-15T14:27:01.049Z,14.77
2022-12-15T14:30:42.851Z,13.32
2022-12-15T14:34:32.441Z,23.23
2022-12-15T14:38:30.475Z,17.85
2022-12-15T14:42:21.820Z,17.35
2022-12-15T14:46:11.259Z,19.75
2022-12-15T14:49:55.291Z,18.60
2022-12-15T14:53:41.783Z,20.20
2022-12-15T14:57:37.642Z,17.05
2022-12-15T15:01:45.072Z,20.88
2022-12-15T15:05:27.869Z,17.30
2022-12-15T15:09:33.120Z,16.05
2022-12-15T15:13:21.526Z,22.10
2022-12-15T15:17:05.602Z,15.27
2022-12-15T15:20:56.771Z,10.38
2022-12-15T15:24:39.419Z,11.15
2022-12-15T15:28:23.174Z,8.77
2022-12-15T15:32:19.093Z,10.07
2022-12-15T15:36:02.915Z,8.98
2022-12-15T15:39:48.706Z,8.93
2022-12-15T15:43:30.479Z,9.40
2022-12-15T15:47:25.273Z,11.75
2022-12-15T15:51:07.093Z,9.73
2022-12-15T15:54:48.981Z,11.40
2022-12-15T15:58:31.254Z,14.00
2022-12-15T16:02:14.508Z,11.02
2022-12-15T16:05:56.730Z,13.45
2022-12-15T16:09:38.582Z,9.15
2022-12-15T16:13:25.997Z,13.07
2022-12-15T16:17:09.506Z,9.73
2022-12-15T16:20:52.374Z,13.25
2022-12-15T16:24:36.197Z,9.10
2022-12-15T16:28:24.555Z,9.13
2022-12-15T16:32:08.837Z,7.22
2022-12-15T16:35:51.426Z,15.65
2022-12-15T16:39:35.005Z,11.32
2022-12-15T16:43:19.867Z,10.85
2022-12-15T16:47:01.660Z,12.00
2022-12-15T16:50:46.957Z,9.77
2022-12-15T16:54:31.306Z,13.18
2022-12-15T16:58:17.297Z,13.85
2022-12-15T17:01:59.252Z,18.38
2022-12-15T17:05:43.848Z,18.83
2022-12-15T17:09:26.258Z,18.25
2022-12-15T17:13:21.768Z,17.90
2022-12-15T17:17:13.721Z,21.70
2022-12-15T17:21:10.886Z,17.48
2022-12-15T17:24:52.966Z,15.40
2022-12-15T17:28:37.100Z,17.52
2022-12-15T17:32:18.896Z,20.15
2022-12-15T17:36:03.525Z,18.67
2022-12-15T17:39:50.744Z,18.05
2022-12-15T17:43:36.003Z,19.15
2022-12-15T17:47:18.010Z,15.00
2022-12-15T17:50:59.949Z,19.25
2022-12-15T17:54:41.765Z,15.70
2022-12-15T17:58:25.983Z,16.30
2022-12-15T18:02:12.426Z,14.60
2022-12-15T18:05:54.764Z,16.07
2022-12-15T18:09:36.510Z,14.10
2022-12-15T18:13:21.382Z,18.25
2022-12-15T18:17:03.182Z,15.82
2022-12-15T18:20:45.884Z,14.50
2022-12-15T18:24:28.073Z,12.43
2022-12-15T18:28:24.367Z,11.30
2022-12-15T18:32:06.255Z,17.63
2022-12-15T18:35:50.791Z,13.90
2022-12-15T18:39:32.535Z,15.90
2022-12-15T18:43:16.924Z,16.95
2022-12-15T18:46:58.756Z,15.13
2022-12-15T18:50:40.678Z,18.80
2022-12-15T18:54:25.337Z,14.90
2022-12-15T18:58:22.510Z,20.27
2022-12-15T19:02:04.343Z,22.15
2022-12-15T19:05:47.655Z,19.52
2022-12-15T19:09:29.399Z,19.15
2022-12-15T19:13:15.384Z,18.70
2022-12-15T19:17:16.260Z,19.92
2022-12-15T19:21:16.891Z,20.00
2022-12-15T19:24:59.123Z,20.27
2022-12-15T19:28:40.889Z,21.42
2022-12-15T19:32:23.562Z,21.38
2022-12-15T19:36:16.463Z,17.60
2022-12-15T19:40:00.385Z,21.58
2022-12-15T19:43:42.623Z,21.15
2022-12-15T19:47:24.389Z,20.55
2022-12-15T19:51:18.137Z,23.13
2022-12-15T19:55:01.100Z,19.35
2022-12-15T19:58:43.763Z,28.60
2022-12-15T20:02:26.490Z,26.25
2022-12-15T20:06:17.114Z,24.65
2022-12-15T20:09:59.310Z,27.48
2022-12-15T20:13:41.018Z,21.60
2022-12-15T20:17:22.750Z,17.70
2022-12-15T20:21:04.588Z,19.00
2022-12-15T20:24:47.223Z,18.73
2022-12-15T20:28:30.206Z,22.95
2022-12-15T20:32:19.431Z,24.85
2022-12-15T20:36:01.145Z,20.02
2022-12-15T20:39:42.955Z,23.38
2022-12-15T20:43:26.394Z,20.60
2022-12-15T20:47:20.328Z,17.75
2022-12-15T20:51:05.988Z,19.92
2022-12-15T20:54:52.620Z,26.45
2022-12-15T20:58:40.328Z,22.35
2022-12-15T21:02:23.810Z,23.92
2022-12-15T21:06:05.926Z,21.00
2022-12-15T21:09:47.700Z,17.63
2022-12-15T21:13:33.165Z,19.75
2022-12-15T21:17:16.815Z,19.40
2022-12-15T21:21:01.549Z,27.38
2022-12-15T21:24:43.316Z,21.15
2022-12-15T21:28:25.839Z,22.15
2022-12-15T21:32:07.775Z,23.60
2022-12-15T21:35:49.570Z,24.60
2022-12-15T21:39:35.166Z,30.33
2022-12-15T21:43:16.945Z,23.73
2022-12-15T21:46:58.715Z,25.30
2022-12-15T21:50:44.681Z,24.73
2022-12-15T21:54:31.342Z,25.80
2022-12-15T21:58:19.445Z,29.83
2022-12-15T22:02:02.179Z,23.65
2022-12-15T22:05:44.015Z,26.35
2022-12-15T22:09:25.771Z,27.42
2022-12-15T22:13:12.849Z,23.92
2022-12-15T22:16:54.833Z,25.08
2022-12-15T22:20:36.583Z,20.85
2022-12-15T22:24:18.813Z,25.13
2022-12-15T22:28:00.791Z,21.92
2022-12-15T22:31:42.828Z,20.40
2022-12-15T22:35:26.532Z,22.35
2022-12-15T22:39:11.587Z,25.20
2022-12-15T22:42:57.054Z,19.10
2022-12-15T22:46:38.888Z,27.77
2022-12-15T22:50:26.220Z,20.50
2022-12-15T22:54:20.826Z,19.95
2022-12-15T22:58:09.378Z,19.58
2022-12-15T23:01:51.271Z,18.27
2022-12-15T23:05:33.463Z,20.73
2022-12-15T23:09:15.242Z,17.10
2022-12-15T23:12:56.954Z,17.77
2022-12-15T23:16:39.427Z,18.38
2022-12-15T23:20:21.149Z,21.20
2022-12-15T23:24:02.915Z,25.23
2022-12-15T23:27:44.709Z,23.02
2022-12-15T23:31:26.523Z,22.30
2022-12-15T23:35:08.612Z,23.90
2022-12-15T23:38:50.369Z,19.98
2022-12-15T23:42:34.476Z,21.30
2022-12-15T23:46:16.289Z,18.08
2022-12-15T23:49:58.066Z,21.50
2022-12-15T23:53:40.856Z,20.10
2022-12-15T23:57:22.652Z,31.67
